Time;durP1;ratioP1;P1;durP2;ratioP2;P2;SDS_P1;SDS_P2;PMS_P1;PMS_P2;Temp;Humidity;BMP_temperature;BMP_pressure;BME280_temperature;BME280_humidity;BME280_pressure;Samples;Min_cycle;Max_cycle;Signal;HPM_P1;HPM_P2
2021/06/16 00:01:40;;;;;;;16.10;7.00;;;18.50;74.60;;;;;;5062543;28;20033;-75
2021/06/16 00:04:06;;;;;;;13.18;7.07;;;18.40;74.90;;;;;;5039356;28;20587;-77
2021/06/16 00:06:34;;;;;;;13.57;8.10;;;18.40;74.80;;;;;;5060007;28;20550;-72
2021/06/16 00:09:01;;;;;;;15.48;7.78;;;18.40;74.80;;;;;;5060377;28;20048;-72
2021/06/16 00:11:26;;;;;;;13.05;7.30;;;18.40;75.00;;;;;;5060463;28;20039;-73
2021/06/16 00:13:53;;;;;;;14.40;8.18;;;18.30;75.30;;;;;;5058234;28;20041;-72
2021/06/16 00:16:19;;;;;;;13.35;7.00;;;18.20;75.40;;;;;;5058530;28;20045;-71
2021/06/16 00:18:44;;;;;;;13.23;7.97;;;18.30;75.40;;;;;;5043209;28;20044;-72
2021/06/16 00:21:12;;;;;;;13.57;7.90;;;18.30;75.30;;;;;;5060796;28;20498;-77
2021/06/16 00:23:38;;;;;;;16.58;8.25;;;18.30;75.40;;;;;;5059900;28;20036;-77
2021/06/16 00:26:04;;;;;;;11.82;7.65;;;18.20;75.70;;;;;;5059828;28;20049;-73
2021/06/16 00:28:30;;;;;;;12.10;7.63;;;18.20;75.70;;;;;;5043480;28;20403;-78
2021/06/16 00:30:55;;;;;;;13.63;8.38;;;18.20;75.60;;;;;;5058944;28;20447;-72
2021/06/16 00:33:21;;;;;;;14.75;7.38;;;18.20;75.60;;;;;;5057985;28;20040;-72
2021/06/16 00:35:47;;;;;;;12.18;7.15;;;18.20;75.80;;;;;;5059910;28;20468;-72
2021/06/16 00:38:12;;;;;;;15.68;8.25;;;18.20;75.80;;;;;;5060374;28;20044;-74
2021/06/16 00:40:38;;;;;;;14.07;8.43;;;18.20;75.70;;;;;;5050744;28;20059;-77
2021/06/16 00:43:04;;;;;;;13.57;8.85;;;18.10;75.70;;;;;;5060514;28;20051;-73
2021/06/16 00:45:30;;;;;;;13.32;8.00;;;18.10;76.10;;;;;;5061580;28;20036;-72
2021/06/16 00:47:56;;;;;;;12.77;8.20;;;18.10;76.20;;;;;;5061075;28;20036;-72
2021/06/16 00:50:25;;;;;;;15.15;7.65;;;18.10;76.10;;;;;;5060524;28;20485;-72
2021/06/16 00:52:51;;;;;;;14.35;8.02;;;18.10;76.00;;;;;;5057536;28;20028;-78
2021/06/16 00:55:17;;;;;;;14.52;8.55;;;18.10;75.80;;;;;;5060560;28;20119;-72
2021/06/16 00:57:43;;;;;;;16.05;8.90;;;18.10;75.90;;;;;;5061234;28;20085;-72
2021/06/16 01:00:21;;;;;;;14.23;7.90;;;18.10;76.10;;;;;;5056431;28;20032;-78
2021/06/16 01:02:59;;;;;;;13.40;8.00;;;18.10;76.20;;;;;;5037511;28;20045;-73
2021/06/16 01:05:35;;;;;;;16.05;8.63;;;18.10;76.10;;;;;;5059140;28;20044;-73
2021/06/16 01:08:02;;;;;;;15.10;9.10;;;18.10;76.00;;;;;;5058096;28;20044;-81
2021/06/16 01:10:29;;;;;;;11.77;8.38;;;18.10;76.10;;;;;;5055460;28;20029;-71
2021/06/16 01:13:04;;;;;;;15.82;9.55;;;18.10;76.40;;;;;;5058809;28;20089;-71
2021/06/16 01:16:16;;;;;;;17.27;8.65;;;18.00;76.60;;;;;;5056779;28;20111;-71
2021/06/16 01:18:49;;;;;;;17.08;9.20;;;17.90;76.80;;;;;;5026435;28;20049;-74
2021/06/16 01:21:16;;;;;;;18.30;9.57;;;17.80;77.20;;;;;;5060544;28;20035;-76
2021/06/16 01:24:04;;;;;;;16.05;8.50;;;17.80;77.30;;;;;;5042019;28;20384;-71
2021/06/16 01:26:38;;;;;;;15.05;9.35;;;17.80;77.20;;;;;;5060530;28;20040;-73
2021/06/16 01:29:14;;;;;;;13.90;9.13;;;17.80;77.30;;;;;;5057684;28;20044;-79
2021/06/16 01:31:41;;;;;;;13.88;8.73;;;17.90;77.00;;;;;;5057670;28;20287;-75
2021/06/16 01:34:09;;;;;;;15.13;9.05;;;17.90;76.90;;;;;;5057544;28;20037;-73
2021/06/16 01:36:37;;;;;;;16.20;9.20;;;17.90;76.80;;;;;;5054843;28;20526;-79
2021/06/16 01:39:07;;;;;;;15.32;9.93;;;17.90;76.60;;;;;;5042369;28;20536;-71
2021/06/16 01:41:33;;;;;;;14.48;8.77;;;17.90;76.40;;;;;;5060098;28;20028;-71
2021/06/16 01:44:00;;;;;;;15.88;9.05;;;17.90;76.40;;;;;;5059671;28;20103;-71
2021/06/16 01:46:26;;;;;;;18.88;10.25;;;17.80;76.50;;;;;;5056694;28;20098;-77
2021/06/16 01:48:53;;;;;;;15.95;9.07;;;17.80;76.70;;;;;;5060372;28;20033;-71
2021/06/16 01:51:21;;;;;;;16.58;9.85;;;17.80;76.80;;;;;;5059499;28;20025;-74
2021/06/16 01:53:48;;;;;;;17.38;9.70;;;17.80;76.80;;;;;;5057170;28;20041;-72
2021/06/16 01:56:15;;;;;;;16.90;9.77;;;17.70;76.70;;;;;;5056530;28;20041;-71
2021/06/16 01:58:43;;;;;;;14.20;9.52;;;17.70;77.10;;;;;;5059371;28;20041;-72
2021/06/16 02:01:09;;;;;;;13.95;9.25;;;17.60;77.30;;;;;;5058839;28;20021;-72
2021/06/16 02:03:35;;;;;;;14.18;9.13;;;17.60;77.20;;;;;;5055213;28;20487;-71
2021/06/16 02:06:01;;;;;;;17.25;10.57;;;17.60;77.30;;;;;;5057743;28;20118;-75
2021/06/16 02:08:30;;;;;;;16.70;9.65;;;17.60;77.20;;;;;;5040657;28;20945;-72
2021/06/16 02:10:59;;;;;;;16.33;9.77;;;17.60;77.20;;;;;;5039306;28;20714;-71
2021/06/16 02:13:41;;;;;;;15.80;10.25;;;17.60;77.20;;;;;;5056529;28;20472;-74
2021/06/16 02:16:13;;;;;;;16.60;9.35;;;17.50;77.30;;;;;;5058615;28;20044;-73
2021/06/16 02:18:49;;;;;;;19.60;10.60;;;17.50;77.60;;;;;;5056319;28;20040;-72
2021/06/16 02:21:16;;;;;;;13.52;9.98;;;17.50;77.50;;;;;;5057771;28;20068;-72
2021/06/16 02:23:43;;;;;;;14.43;10.20;;;17.50;77.40;;;;;;5054608;28;20045;-79
2021/06/16 02:26:12;;;;;;;18.77;10.25;;;17.50;77.30;;;;;;5057830;28;20048;-71
2021/06/16 02:28:38;;;;;;;15.45;9.63;;;17.40;77.30;;;;;;5040944;28;20032;-76
2021/06/16 02:31:04;;;;;;;17.40;9.52;;;17.40;77.50;;;;;;5054527;28;20036;-79
2021/06/16 02:33:30;;;;;;;19.00;9.65;;;17.40;77.50;;;;;;5057120;28;20032;-71
2021/06/16 02:35:55;;;;;;;14.10;9.55;;;17.40;77.50;;;;;;5058864;28;20508;-71
2021/06/16 02:38:27;;;;;;;21.42;9.25;;;17.40;77.30;;;;;;5058965;28;20089;-80
2021/06/16 02:40:54;;;;;;;13.57;8.90;;;17.40;77.20;;;;;;5058621;28;20032;-72
2021/06/16 02:43:21;;;;;;;15.05;9.50;;;17.50;77.10;;;;;;5057123;28;20040;-72
2021/06/16 02:45:48;;;;;;;14.02;9.43;;;17.40;77.10;;;;;;5057709;28;20044;-72
2021/06/16 02:48:16;;;;;;;20.02;9.88;;;17.40;77.10;;;;;;5039405;28;20033;-73
2021/06/16 02:50:46;;;;;;;15.63;9.73;;;17.40;77.10;;;;;;5057895;28;20036;-75
2021/06/16 02:53:17;;;;;;;14.27;9.85;;;17.40;77.10;;;;;;5056814;28;20488;-77
2021/06/16 02:55:46;;;;;;;12.73;9.00;;;17.40;76.90;;;;;;5056280;28;20051;-72
2021/06/16 02:58:14;;;;;;;16.67;9.25;;;17.40;77.00;;;;;;5056357;28;20076;-73
2021/06/16 03:00:41;;;;;;;14.75;8.85;;;17.40;77.10;;;;;;5054369;28;20091;-71
2021/06/16 03:03:07;;;;;;;13.35;9.30;;;17.40;77.00;;;;;;5036878;28;20848;-73
2021/06/16 03:05:35;;;;;;;13.32;9.43;;;17.40;77.10;;;;;;5056045;28;20105;-78
2021/06/16 03:08:02;;;;;;;14.15;10.27;;;17.40;76.90;;;;;;5054938;28;20567;-72
2021/06/16 03:10:29;;;;;;;16.80;9.68;;;17.40;76.70;;;;;;5058871;28;20037;-72
2021/06/16 03:12:57;;;;;;;14.00;9.23;;;17.30;76.70;;;;;;5055853;28;20032;-77
2021/06/16 03:15:24;;;;;;;18.33;9.65;;;17.30;77.10;;;;;;5062855;28;20056;-75
2021/06/16 03:17:50;;;;;;;18.17;9.75;;;17.20;77.10;;;;;;5060049;28;20413;-77
2021/06/16 03:20:20;;;;;;;15.07;9.95;;;17.20;77.00;;;;;;5056425;28;20095;-72
2021/06/16 03:22:47;;;;;;;17.10;10.55;;;17.10;77.50;;;;;;5055838;28;20051;-71
2021/06/16 03:25:14;;;;;;;14.82;10.27;;;17.00;78.00;;;;;;5040078;28;20044;-71
2021/06/16 03:27:40;;;;;;;15.38;10.10;;;17.00;78.10;;;;;;5056926;28;20726;-71
2021/06/16 03:30:07;;;;;;;15.55;10.50;;;17.00;78.20;;;;;;5055571;28;20041;-72
2021/06/16 03:32:35;;;;;;;14.43;9.95;;;16.90;78.30;;;;;;5059384;28;20040;-72
2021/06/16 03:35:02;;;;;;;14.30;9.57;;;16.90;78.40;;;;;;5057431;28;20040;-72
2021/06/16 03:37:29;;;;;;;22.08;10.90;;;16.90;78.30;;;;;;5056879;28;20028;-77
2021/06/16 03:39:57;;;;;;;20.23;9.95;;;16.80;78.60;;;;;;5056774;28;20029;-77
2021/06/16 03:42:23;;;;;;;17.73;9.70;;;16.80;78.50;;;;;;5052518;28;20079;-78
2021/06/16 03:44:50;;;;;;;15.43;9.75;;;16.80;78.80;;;;;;5058155;28;20114;-75
2021/06/16 03:47:20;;;;;;;14.90;9.35;;;16.80;78.70;;;;;;5055816;28;20035;-71
2021/06/16 03:49:47;;;;;;;14.32;10.02;;;16.90;78.50;;;;;;5058861;28;20533;-73
2021/06/16 03:52:15;;;;;;;17.33;10.23;;;17.00;78.10;;;;;;5054211;28;20025;-71
2021/06/16 03:54:41;;;;;;;16.20;9.80;;;17.00;77.90;;;;;;5055312;28;20032;-77
2021/06/16 03:57:07;;;;;;;15.57;9.70;;;17.00;77.50;;;;;;5057921;28;20440;-74
2021/06/16 03:59:35;;;;;;;15.77;8.50;;;17.10;77.40;;;;;;5057082;28;20069;-73
2021/06/16 04:02:01;;;;;;;14.77;9.45;;;17.10;77.50;;;;;;5055377;28;20477;-71
2021/06/16 04:04:27;;;;;;;14.82;9.30;;;17.20;77.10;;;;;;5052665;28;21281;-75
2021/06/16 04:06:53;;;;;;;13.77;8.35;;;17.30;76.80;;;;;;5040548;28;20551;-74
2021/06/16 04:09:19;;;;;;;12.80;8.70;;;17.40;76.70;;;;;;5036234;28;20040;-77
2021/06/16 04:11:45;;;;;;;11.48;7.55;;;17.50;76.50;;;;;;5055420;28;20124;-72
2021/06/16 04:14:11;;;;;;;11.93;8.05;;;17.50;76.30;;;;;;5062476;28;20040;-71
2021/06/16 04:16:42;;;;;;;13.55;8.95;;;17.60;75.80;;;;;;5059204;28;20584;-78
2021/06/16 04:19:07;;;;;;;17.90;9.23;;;17.60;75.20;;;;;;5057558;28;20032;-71
2021/06/16 04:21:33;;;;;;;16.77;9.80;;;17.60;75.50;;;;;;5058261;28;20032;-80
2021/06/16 04:23:59;;;;;;;12.20;8.60;;;17.60;75.60;;;;;;5060940;28;20036;-75
2021/06/16 04:26:24;;;;;;;15.07;9.95;;;17.50;75.90;;;;;;5058193;28;20071;-73
2021/06/16 04:28:50;;;;;;;13.98;9.23;;;17.40;76.00;;;;;;5060913;28;20386;-71
2021/06/16 04:31:16;;;;;;;13.63;8.45;;;17.40;76.50;;;;;;5058990;28;20024;-71
2021/06/16 04:33:41;;;;;;;14.68;8.52;;;17.60;76.20;;;;;;5059337;28;20032;-78
2021/06/16 04:36:08;;;;;;;15.10;8.23;;;17.70;75.80;;;;;;5059866;28;20037;-71
2021/06/16 04:38:35;;;;;;;16.70;9.23;;;17.80;75.10;;;;;;5060813;28;20034;-77
2021/06/16 04:41:01;;;;;;;15.05;8.75;;;17.90;74.30;;;;;;5061059;28;20071;-74
2021/06/16 04:43:27;;;;;;;15.88;8.82;;;17.90;74.60;;;;;;5057635;28;20032;-75
2021/06/16 04:45:53;;;;;;;16.35;8.70;;;17.90;74.90;;;;;;5041635;28;20036;-73
2021/06/16 04:48:18;;;;;;;14.30;8.50;;;18.10;74.40;;;;;;5059790;28;20040;-74
2021/06/16 04:50:44;;;;;;;15.75;8.45;;;18.10;73.80;;;;;;5063919;28;20074;-70
2021/06/16 04:53:10;;;;;;;11.95;8.10;;;18.20;73.70;;;;;;5057951;28;20036;-72
2021/06/16 04:55:36;;;;;;;17.75;9.35;;;18.30;73.70;;;;;;5060141;28;20150;-79
2021/06/16 04:58:02;;;;;;;14.90;8.43;;;18.40;73.00;;;;;;5056393;28;20097;-71
2021/06/16 05:00:28;;;;;;;13.65;8.38;;;18.60;72.70;;;;;;5060321;28;20410;-74
2021/06/16 05:02:55;;;;;;;16.55;9.07;;;18.70;72.00;;;;;;5055949;28;20032;-71
2021/06/16 05:05:23;;;;;;;13.77;8.30;;;18.70;72.40;;;;;;5039497;28;20036;-71
2021/06/16 05:07:49;;;;;;;12.80;7.45;;;18.90;71.80;;;;;;5059502;28;20087;-77
2021/06/16 05:10:15;;;;;;;13.10;7.65;;;19.50;70.30;;;;;;5057787;28;20025;-71
2021/06/16 05:12:44;;;;;;;12.82;7.70;;;20.80;66.20;;;;;;5040297;28;20417;-76
2021/06/16 05:15:12;;;;;;;12.60;7.28;;;21.80;62.10;;;;;;5057135;28;20072;-78
2021/06/16 05:17:39;;;;;;;11.55;6.63;;;22.60;59.90;;;;;;5041146;28;20753;-73
2021/06/16 05:20:12;;;;;;;13.07;5.95;;;23.10;57.90;;;;;;5057602;28;20170;-75
2021/06/16 05:22:39;;;;;;;9.67;5.70;;;24.30;55.90;;;;;;5055190;28;20081;-72
2021/06/16 05:25:08;;;;;;;15.35;6.55;;;24.80;52.70;;;;;;5056761;28;20299;-72
2021/06/16 05:27:34;;;;;;;14.23;6.07;;;25.10;51.60;;;;;;5053303;28;20037;-72
2021/06/16 05:30:01;;;;;;;11.85;6.53;;;25.70;50.40;;;;;;5055758;28;20039;-74
2021/06/16 05:32:27;;;;;;;11.07;5.78;;;26.00;49.10;;;;;;5055830;28;20049;-77
2021/06/16 05:34:53;;;;;;;11.85;6.32;;;26.20;48.80;;;;;;5039740;28;20126;-72
2021/06/16 05:37:19;;;;;;;12.32;5.50;;;26.40;47.40;;;;;;5057726;28;20197;-72
2021/06/16 05:39:45;;;;;;;11.77;5.32;;;26.20;48.90;;;;;;5059528;28;20036;-79
2021/06/16 05:42:11;;;;;;;13.55;6.15;;;26.80;47.40;;;;;;5057065;28;20024;-72
2021/06/16 05:44:37;;;;;;;10.75;5.55;;;27.50;45.50;;;;;;5056818;28;20075;-76
2021/06/16 05:47:04;;;;;;;13.52;5.97;;;27.80;45.00;;;;;;5057322;28;20126;-72
2021/06/16 05:49:30;;;;;;;13.63;6.65;;;27.50;45.10;;;;;;5059414;28;20044;-73
2021/06/16 05:51:56;;;;;;;13.10;6.00;;;27.50;45.10;;;;;;5058193;28;20033;-72
2021/06/16 05:54:22;;;;;;;13.50;6.13;;;27.10;46.30;;;;;;5057598;28;20433;-72
2021/06/16 05:56:48;;;;;;;13.18;5.80;;;26.30;48.40;;;;;;5061216;28;20086;-73
2021/06/16 05:59:13;;;;;;;14.63;6.60;;;25.40;49.90;;;;;;5057850;28;20028;-71
2021/06/16 06:01:39;;;;;;;12.32;6.07;;;24.70;51.80;;;;;;5057752;28;20037;-77
2021/06/16 06:04:08;;;;;;;10.82;6.30;;;23.90;55.20;;;;;;5040502;28;20778;-77
2021/06/16 06:06:35;;;;;;;11.30;5.97;;;23.60;54.60;;;;;;5058716;28;20048;-78
2021/06/16 06:09:05;;;;;;;11.10;5.85;;;23.40;56.00;;;;;;5059029;28;20025;-74
2021/06/16 06:11:34;;;;;;;11.77;5.45;;;23.30;55.70;;;;;;5062299;28;20040;-75
2021/06/16 06:13:59;;;;;;;11.13;5.43;;;23.40;56.70;;;;;;5059649;28;20044;-72
2021/06/16 06:16:25;;;;;;;10.48;5.40;;;23.50;55.50;;;;;;5063335;28;20042;-73
2021/06/16 06:18:51;;;;;;;12.75;5.20;;;23.40;55.40;;;;;;5064804;28;20106;-71
2021/06/16 06:21:16;;;;;;;12.07;5.97;;;23.50;56.60;;;;;;5065893;28;20074;-75
2021/06/16 06:23:42;;;;;;;13.98;5.50;;;23.60;55.20;;;;;;5063299;28;20029;-73
2021/06/16 06:26:08;;;;;;;9.48;4.93;;;23.60;56.00;;;;;;5065337;28;20048;-73
2021/06/16 06:28:34;;;;;;;12.50;5.35;;;23.70;54.90;;;;;;5067409;28;20105;-72
2021/06/16 06:30:59;;;;;;;13.98;6.28;;;23.90;54.90;;;;;;5061027;28;20032;-71
2021/06/16 06:33:25;;;;;;;10.52;5.03;;;24.10;53.50;;;;;;5044142;28;20127;-78
2021/06/16 06:35:51;;;;;;;11.30;5.75;;;24.10;54.20;;;;;;5063630;28;20481;-77
2021/06/16 06:38:16;;;;;;;11.02;5.63;;;24.20;53.80;;;;;;5061804;28;20138;-73
2021/06/16 06:40:43;;;;;;;11.32;5.35;;;24.40;54.00;;;;;;5066468;28;20085;-75
2021/06/16 06:43:08;;;;;;;9.77;5.53;;;24.40;53.60;;;;;;5060105;28;20072;-75
2021/06/16 06:45:34;;;;;;;13.60;5.43;;;24.50;52.80;;;;;;5062413;28;20516;-73
2021/06/16 06:48:00;;;;;;;10.63;5.40;;;24.50;53.90;;;;;;5066432;28;20483;-73
2021/06/16 06:50:26;;;;;;;10.23;4.50;;;24.50;53.10;;;;;;5064857;28;20673;-69
2021/06/16 06:52:51;;;;;;;14.82;5.93;;;24.60;53.40;;;;;;5045685;28;20475;-68
2021/06/16 06:55:17;;;;;;;9.90;5.63;;;24.80;52.50;;;;;;5061491;28;20582;-69
2021/06/16 06:57:44;;;;;;;11.40;4.68;;;24.70;52.90;;;;;;5062707;28;20029;-69
2021/06/16 07:00:11;;;;;;;11.10;6.00;;;24.80;52.50;;;;;;5060582;28;20056;-69
2021/06/16 07:02:37;;;;;;;11.32;5.10;;;24.90;52.20;;;;;;5061231;28;20029;-69
2021/06/16 07:05:04;;;;;;;12.70;5.45;;;25.00;52.70;;;;;;5064432;28;20033;-71
2021/06/16 07:07:29;;;;;;;9.70;5.07;;;25.10;52.10;;;;;;5064205;28;20078;-69
2021/06/16 07:09:55;;;;;;;9.93;5.00;;;25.30;51.70;;;;;;5061789;28;20425;-69
2021/06/16 07:12:21;;;;;;;10.98;5.25;;;25.40;52.00;;;;;;5059838;28;20057;-72
2021/06/16 07:14:47;;;;;;;11.05;6.03;;;25.60;51.50;;;;;;5064041;28;20715;-70
2021/06/16 07:17:13;;;;;;;10.35;5.22;;;25.60;51.40;;;;;;5060200;28;20078;-69
2021/06/16 07:19:38;;;;;;;12.63;6.20;;;25.80;51.00;;;;;;5061427;28;20037;-69
2021/06/16 07:22:05;;;;;;;11.48;5.50;;;25.80;50.20;;;;;;5059894;28;20029;-71
2021/06/16 07:24:31;;;;;;;10.18;5.43;;;26.00;51.40;;;;;;5063703;28;20048;-72
2021/06/16 07:26:56;;;;;;;12.98;6.10;;;26.00;50.90;;;;;;5045196;28;20033;-70
2021/06/16 07:29:23;;;;;;;10.35;5.47;;;26.30;50.70;;;;;;5060512;28;20051;-73
2021/06/16 07:31:50;;;;;;;12.50;5.75;;;26.40;49.90;;;;;;5058614;28;20178;-73
2021/06/16 07:34:15;;;;;;;11.27;5.40;;;26.30;50.20;;;;;;5045904;28;20430;-74
2021/06/16 07:36:41;;;;;;;13.90;6.28;;;26.40;50.20;;;;;;5062454;28;20036;-71
2021/06/16 07:39:07;;;;;;;14.52;5.68;;;26.60;49.40;;;;;;5062070;28;20037;-70
2021/06/16 07:41:33;;;;;;;10.63;5.45;;;26.70;49.20;;;;;;5041936;28;20476;-71
2021/06/16 07:43:58;;;;;;;11.90;5.13;;;26.90;49.50;;;;;;5051949;28;20559;-70
2021/06/16 07:46:24;;;;;;;14.45;6.57;;;27.00;49.30;;;;;;5061190;28;20432;-70
2021/06/16 07:48:50;;;;;;;12.35;5.43;;;27.10;48.80;;;;;;5067146;28;20480;-72
2021/06/16 07:51:17;;;;;;;11.55;5.65;;;27.00;49.60;;;;;;5047203;28;20128;-70
2021/06/16 07:53:43;;;;;;;11.88;6.15;;;27.10;48.90;;;;;;5064318;28;20039;-70
2021/06/16 07:56:09;;;;;;;10.98;5.38;;;27.30;48.30;;;;;;5061425;28;20036;-72
2021/06/16 07:58:34;;;;;;;12.38;6.05;;;27.50;49.30;;;;;;5046913;28;20043;-70
2021/06/16 08:01:00;;;;;;;14.38;5.78;;;27.50;48.40;;;;;;5065914;28;20855;-71
2021/06/16 08:03:27;;;;;;;12.02;6.72;;;27.50;49.10;;;;;;5047668;28;20047;-74
2021/06/16 08:05:54;;;;;;;13.10;6.65;;;27.70;48.50;;;;;;5067422;28;20060;-71
2021/06/16 08:08:20;;;;;;;11.82;5.90;;;27.60;48.10;;;;;;5065959;28;20456;-70
2021/06/16 08:10:46;;;;;;;14.00;6.18;;;27.60;49.40;;;;;;5067683;28;20482;-70
2021/06/16 08:13:12;;;;;;;14.30;6.50;;;28.00;47.80;;;;;;5049167;28;20114;-70
2021/06/16 08:15:38;;;;;;;11.32;6.60;;;28.00;47.00;;;;;;5066322;28;20379;-71
2021/06/16 08:18:04;;;;;;;12.07;6.63;;;28.10;46.00;;;;;;5065113;28;20498;-71
2021/06/16 08:20:30;;;;;;;11.63;6.55;;;28.10;45.80;;;;;;5063150;28;20041;-70
2021/06/16 08:22:55;;;;;;;11.15;6.28;;;28.10;45.80;;;;;;5061259;28;20032;-71
2021/06/16 08:25:21;;;;;;;12.20;7.10;;;28.20;45.70;;;;;;5065048;28;20037;-75
2021/06/16 08:27:47;;;;;;;14.07;6.88;;;28.30;45.40;;;;;;5066875;28;20058;-76
2021/06/16 08:30:14;;;;;;;10.10;5.70;;;28.30;45.90;;;;;;5067352;28;20115;-73
2021/06/16 08:32:41;;;;;;;12.45;6.28;;;28.70;45.90;;;;;;5061221;28;20123;-72
2021/06/16 08:35:08;;;;;;;10.13;6.47;;;28.80;45.40;;;;;;5067374;28;20070;-75
2021/06/16 08:37:34;;;;;;;10.40;6.25;;;28.80;45.20;;;;;;5063123;28;20040;-70
2021/06/16 08:40:00;;;;;;;14.48;6.93;;;28.80;44.90;;;;;;5068586;28;20249;-70
2021/06/16 08:42:29;;;;;;;11.40;6.75;;;28.80;44.10;;;;;;5043195;28;20032;-70
2021/06/16 08:44:56;;;;;;;11.10;7.15;;;28.70;45.50;;;;;;5065814;28;20113;-72
2021/06/16 08:47:23;;;;;;;12.43;6.70;;;28.80;44.80;;;;;;5066857;28;20047;-69
2021/06/16 08:49:50;;;;;;;12.40;6.80;;;29.00;45.60;;;;;;5066270;28;20391;-68
2021/06/16 08:52:16;;;;;;;13.45;6.65;;;29.20;45.90;;;;;;5063967;28;20043;-69
2021/06/16 08:54:42;;;;;;;16.90;6.72;;;29.30;44.80;;;;;;5050768;28;20419;-69
2021/06/16 08:57:08;;;;;;;11.00;6.18;;;29.10;44.40;;;;;;5045408;28;20403;-68
2021/06/16 08:59:33;;;;;;;9.75;6.47;;;29.10;45.20;;;;;;5064619;28;20467;-69
2021/06/16 09:01:59;;;;;;;11.52;6.40;;;29.40;44.50;;;;;;5043964;28;20044;-69
2021/06/16 09:04:45;;;;;;;11.68;6.30;;;29.70;44.10;;;;;;5063933;28;20102;-70
2021/06/16 09:07:14;;;;;;;11.65;6.30;;;29.90;43.40;;;;;;5066668;28;20420;-69
2021/06/16 09:09:41;;;;;;;10.77;6.45;;;29.80;43.50;;;;;;5067177;28;20040;-70
2021/06/16 09:12:07;;;;;;;16.15;6.38;;;30.00;43.00;;;;;;5058434;28;20041;-73
2021/06/16 09:14:33;;;;;;;11.85;5.93;;;30.10;43.60;;;;;;5064791;28;20479;-70
2021/06/16 09:17:03;;;;;;;13.48;7.78;;;29.90;43.60;;;;;;5068212;28;20031;-69
2021/06/16 09:19:32;;;;;;;13.27;6.90;;;30.00;43.20;;;;;;5066229;28;20789;-71
2021/06/16 09:22:07;;;;;;;12.82;5.80;;;30.00;43.50;;;;;;5032041;28;20041;-74
2021/06/16 09:24:54;;;;;;;13.25;7.30;;;30.20;43.60;;;;;;5066041;28;20067;-70
2021/06/16 09:27:44;;;;;;;14.65;7.07;;;30.10;42.40;;;;;;5065359;28;20083;-70
2021/06/16 09:30:18;;;;;;;11.85;5.85;;;30.10;42.80;;;;;;5061711;28;20032;-76
2021/06/16 09:32:48;;;;;;;10.52;5.63;;;30.40;42.90;;;;;;5055934;28;20059;-69
2021/06/16 09:35:37;;;;;;;12.45;6.78;;;30.50;41.20;;;;;;5059127;28;20048;-71
2021/06/16 09:38:07;;;;;;;12.82;6.13;;;30.50;40.60;;;;;;5040955;28;20025;-69
2021/06/16 09:40:40;;;;;;;8.68;6.15;;;30.60;40.50;;;;;;5064935;28;20029;-70
2021/06/16 09:43:10;;;;;;;12.57;5.85;;;30.50;41.30;;;;;;5057490;28;20059;-68
2021/06/16 09:45:37;;;;;;;13.73;5.93;;;30.60;41.30;;;;;;5058294;28;20044;-69
2021/06/16 09:48:31;;;;;;;10.40;6.30;;;30.80;40.80;;;;;;5063260;28;20124;-69
2021/06/16 09:51:21;;;;;;;11.63;5.90;;;30.90;40.40;;;;;;5058012;28;20056;-70
2021/06/16 09:54:14;;;;;;;10.52;6.63;;;30.80;41.50;;;;;;5058236;28;20040;-68
2021/06/16 09:56:58;;;;;;;11.88;6.43;;;30.90;41.20;;;;;;5063041;28;20124;-68
2021/06/16 09:59:46;;;;;;;8.75;5.50;;;31.00;40.40;;;;;;5060374;28;20036;-68
2021/06/16 10:02:16;;;;;;;11.70;6.80;;;31.10;41.20;;;;;;5059797;28;20427;-71
2021/06/16 10:04:48;;;;;;;12.43;7.53;;;30.60;41.10;;;;;;5067949;28;20520;-68
2021/06/16 10:07:33;;;;;;;14.63;6.43;;;30.50;41.40;;;;;;5045158;28;20450;-68
2021/06/16 10:10:11;;;;;;;9.00;5.82;;;30.60;41.80;;;;;;5063732;28;20041;-68
2021/06/16 10:12:42;;;;;;;9.05;5.65;;;30.90;41.30;;;;;;5061472;28;20050;-68
2021/06/16 10:15:22;;;;;;;10.40;6.03;;;31.40;40.30;;;;;;5064129;28;20045;-68
2021/06/16 10:17:49;;;;;;;12.27;6.38;;;31.50;39.50;;;;;;5062325;28;20484;-68
2021/06/16 10:20:16;;;;;;;11.40;6.88;;;31.40;40.00;;;;;;5060238;28;20032;-71
2021/06/16 10:22:42;;;;;;;10.05;5.88;;;31.50;39.80;;;;;;5060213;28;20033;-69
2021/06/16 10:25:09;;;;;;;15.43;6.63;;;31.40;40.60;;;;;;5046102;28;20053;-68
2021/06/16 10:27:59;;;;;;;13.10;6.15;;;31.60;40.70;;;;;;5064052;28;20086;-68
2021/06/16 10:30:31;;;;;;;9.25;5.38;;;31.60;40.60;;;;;;5060866;28;20116;-71
2021/06/16 10:32:57;;;;;;;14.32;5.38;;;32.00;39.90;;;;;;5061156;28;20374;-69
2021/06/16 10:35:33;;;;;;;8.05;4.88;;;32.10;38.70;;;;;;5056757;28;20040;-70
2021/06/16 10:38:13;;;;;;;9.40;4.43;;;32.00;37.90;;;;;;5061239;28;20041;-69
2021/06/16 10:40:48;;;;;;;11.43;5.20;;;32.00;37.40;;;;;;5060220;28;20032;-69
2021/06/16 10:43:16;;;;;;;10.25;4.85;;;32.00;38.30;;;;;;5058192;28;20032;-72
2021/06/16 10:45:51;;;;;;;8.52;4.68;;;32.00;37.20;;;;;;5059451;28;20475;-69
2021/06/16 10:48:17;;;;;;;8.70;5.20;;;32.30;36.80;;;;;;5061413;28;20404;-69
2021/06/16 10:50:46;;;;;;;11.45;6.00;;;32.40;37.90;;;;;;5058309;28;20040;-72
2021/06/16 10:53:12;;;;;;;8.00;5.20;;;32.50;38.80;;;;;;5056565;28;20079;-72
2021/06/16 10:55:53;;;;;;;10.82;5.80;;;32.50;37.00;;;;;;5046280;28;20109;-70
2021/06/16 10:58:29;;;;;;;12.50;5.85;;;32.50;37.00;;;;;;5060496;28;20036;-68
2021/06/16 11:01:20;;;;;;;9.93;4.97;;;32.40;36.70;;;;;;5037235;28;20043;-70
2021/06/16 11:03:46;;;;;;;7.72;4.57;;;32.50;36.30;;;;;;5057646;28;20486;-70
2021/06/16 11:06:36;;;;;;;7.70;4.20;;;32.50;37.60;;;;;;5061902;28;20064;-68
2021/06/16 11:09:11;;;;;;;6.78;4.07;;;32.60;35.80;;;;;;5061656;28;20032;-72
2021/06/16 11:12:00;;;;;;;10.75;5.82;;;32.60;35.10;;;;;;5058397;28;21002;-69
2021/06/16 11:14:32;;;;;;;10.65;5.15;;;32.60;36.20;;;;;;5057186;28;20127;-71
2021/06/16 11:17:09;;;;;;;9.27;4.50;;;32.80;35.70;;;;;;5060172;28;20119;-69
2021/06/16 11:19:34;;;;;;;8.60;4.50;;;32.60;36.20;;;;;;5058979;28;20029;-69
2021/06/16 11:22:21;;;;;;;8.10;4.38;;;32.90;34.80;;;;;;5040610;28;20367;-70
2021/06/16 11:25:08;;;;;;;7.20;3.85;;;33.00;35.60;;;;;;4995445;28;20441;-69
2021/06/16 11:28:11;;;;;;;9.70;4.60;;;33.30;34.40;;;;;;5057678;28;20136;-69
2021/06/16 11:30:55;;;;;;;7.80;4.82;;;33.10;35.70;;;;;;5060232;28;20492;-69
2021/06/16 11:33:21;;;;;;;;;;;33.20;36.50;;;;;;5056028;28;20061;-74
2021/06/16 11:36:02;;;;;;;9.35;4.60;;;32.90;36.20;;;;;;5042213;28;20005;-70
2021/06/16 11:38:56;;;;;;;10.05;4.40;;;33.10;36.00;;;;;;5058855;28;20025;-69
2021/06/16 11:41:25;;;;;;;11.80;4.88;;;33.50;34.80;;;;;;5051198;28;20481;-71
2021/06/16 11:43:55;;;;;;;8.60;5.10;;;33.30;35.80;;;;;;5042281;28;20039;-69
2021/06/16 11:46:27;;;;;;;10.70;5.50;;;33.30;36.10;;;;;;5057495;28;20098;-72
2021/06/16 11:49:10;;;;;;;8.68;4.95;;;33.40;35.30;;;;;;5060281;28;20446;-70
2021/06/16 11:51:53;;;;;;;7.63;4.80;;;33.40;35.50;;;;;;5061394;28;20141;-74
2021/06/16 11:54:33;;;;;;;9.60;5.38;;;33.50;34.60;;;;;;5057042;28;20032;-69
2021/06/16 11:57:05;;;;;;;9.48;5.28;;;33.50;35.20;;;;;;5059469;28;20045;-73
2021/06/16 11:59:35;;;;;;;10.02;5.03;;;33.60;34.60;;;;;;5059406;28;20036;-70
2021/06/16 12:02:11;;;;;;;9.80;4.93;;;33.60;34.90;;;;;;5062723;28;20037;-69
2021/06/16 12:04:58;;;;;;;9.00;4.65;;;33.50;35.30;;;;;;5060489;28;20062;-69
2021/06/16 12:07:27;;;;;;;9.55;4.93;;;33.00;36.30;;;;;;5051868;28;20119;-72
2021/06/16 12:09:58;;;;;;;7.07;4.72;;;32.70;36.80;;;;;;5065584;28;20040;-69
2021/06/16 12:12:24;;;;;;;9.88;5.40;;;33.10;36.40;;;;;;5060095;28;20037;-74
2021/06/16 12:15:07;;;;;;;8.65;4.60;;;33.10;35.90;;;;;;5059931;28;20760;-73
2021/06/16 12:17:34;;;;;;;8.30;4.78;;;33.00;36.40;;;;;;5058183;28;20123;-74
2021/06/16 12:20:05;;;;;;;8.00;4.80;;;33.00;37.50;;;;;;5060037;28;20039;-72
2021/06/16 12:22:31;;;;;;;10.85;5.13;;;33.20;36.40;;;;;;5055581;28;20032;-69
2021/06/16 12:24:57;;;;;;;8.60;5.03;;;33.30;35.80;;;;;;5060604;28;20109;-68
2021/06/16 12:27:22;;;;;;;10.00;5.40;;;33.50;35.50;;;;;;5059093;28;20411;-73
2021/06/16 12:29:53;;;;;;;10.13;6.03;;;33.70;35.20;;;;;;5059021;28;21579;-69
2021/06/16 12:32:31;;;;;;;7.60;4.32;;;33.80;35.60;;;;;;5058939;28;20090;-69
2021/06/16 12:35:12;;;;;;;6.85;3.90;;;33.80;35.50;;;;;;5059692;28;20483;-69
2021/06/16 12:37:52;;;;;;;9.45;4.80;;;34.20;33.80;;;;;;5062405;28;20059;-71
2021/06/16 12:40:29;;;;;;;8.45;4.45;;;34.20;34.20;;;;;;5057670;28;20044;-68
2021/06/16 12:42:55;;;;;;;10.70;5.28;;;34.10;33.80;;;;;;5059418;28;20051;-69
2021/06/16 12:45:40;;;;;;;8.15;4.65;;;33.80;34.80;;;;;;5062029;28;20415;-73
2021/06/16 12:48:23;;;;;;;8.73;5.18;;;34.00;35.00;;;;;;5061017;28;20059;-69
2021/06/16 12:50:59;;;;;;;9.48;4.68;;;34.10;35.20;;;;;;5057643;28;20028;-70